»·PEaware :: AAL1187 KSAN-KSEA

AAL1187 :: KSAN-KSEA

FLIGHT INFORMATION

Flight Status: Arrived
Operator:
American Airlines
More flights by this operator :: More flights under this callsign
Pilot: Anonymous 12254 (12254)
Aircraft: BOEING 737-800
(B738)
More flights by this aircraft type
Origin: KSAN San Diego Intl-Lindbergh
United States
Destination: KSEA Seattle-Tacoma Intl
United States
More flights between these airports :: More routes between these airports
Route: PADRZ2 IKAYE TESEA SCTRR SNS RBL LMT HAWKZ7
File this flight plan on PilotEdge
Remarks:
Altitude:
(Current/Filed)
32,000ft
Speed:
(Current/Filed)
450kts
Departed: 08-Sep-19 11:37 AM
Arrived: 08-Sep-19 02:27 PM
Distance/Time
Traveled:
913nm/2:50
Distance/Time
To Go:
Arrived

Flight Plot

Page will automatically refresh every two minutes.

Flight plan parsing failed; only flown route is shown


Map Options




Map Legend


Flown Route
Filed Route
Departure Airport
Arrival Airport
Navaid (VOR, NDB)
Fix

Horizontal Profiles

Position Reports

Time Latitude Longitude Heading Altitude Ground
Speed
08-Sep-19 11:21 32.732381 -117.202811 203 18ft 0kts
08-Sep-19 11:22 32.732381 -117.202811 203 18ft 0kts
08-Sep-19 11:23 32.732381 -117.202811 203 18ft 0kts
08-Sep-19 11:24 32.732381 -117.202811 203 18ft 0kts
08-Sep-19 11:25 32.732688 -117.202753 44 18ft 0kts
08-Sep-19 11:26 32.733138 -117.202636 342 18ft 3kts
08-Sep-19 11:27 32.734319 -117.202639 15 18ft 1kts
08-Sep-19 11:28 32.734660 -117.202531 15 18ft 4kts
08-Sep-19 11:29 32.735158 -117.200460 106 18ft 11kts
08-Sep-19 11:30 32.733958 -117.195564 106 20ft 17kts
08-Sep-19 11:31 32.732321 -117.188836 105 19ft 25kts
08-Sep-19 11:32 32.730256 -117.180267 105 18ft 26kts
08-Sep-19 11:33 32.729484 -117.177063 89 23ft 0kts
08-Sep-19 11:34 32.729485 -117.177059 89 23ft 0kts
08-Sep-19 11:35 32.730365 -117.176659 290 24ft 0kts
08-Sep-19 11:36 32.730672 -117.177847 286 24ft 48kts
08-Sep-19 11:37 32.742607 -117.225230 296 1282ft 187kts
08-Sep-19 11:38 32.777821 -117.280529 302 3602ft 213kts
08-Sep-19 11:39 32.812297 -117.338025 304 5618ft 214kts
08-Sep-19 11:40 32.848945 -117.394910 304 7630ft 216kts
08-Sep-19 11:41 32.885487 -117.451669 305 9628ft 216kts
08-Sep-19 11:42 32.922629 -117.509421 307 11371ft 226kts
08-Sep-19 11:43 32.963749 -117.573404 308 13472ft 251kts
08-Sep-19 11:44 33.006426 -117.640029 308 14947ft 254kts
08-Sep-19 11:45 33.051339 -117.710246 307 16661ft 280kts
08-Sep-19 11:46 33.108506 -117.774807 317 18224ft 285kts
08-Sep-19 11:47 33.170347 -117.837931 317 19842ft 301kts
08-Sep-19 11:48 33.233320 -117.908914 313 21662ft 315kts
08-Sep-19 11:49 33.296458 -117.984197 313 23506ft 325kts
08-Sep-19 11:50 33.361815 -118.062330 312 25310ft 335kts
08-Sep-19 11:51 33.428799 -118.142597 312 27024ft 343kts
08-Sep-19 11:52 33.496885 -118.224369 312 28714ft 346kts
08-Sep-19 11:53 33.565411 -118.306869 311 30203ft 349kts
08-Sep-19 11:54 33.634048 -118.389697 311 31666ft 347kts
08-Sep-19 11:55 33.704854 -118.475410 311 32000ft 376kts
08-Sep-19 11:56 33.779540 -118.565956 311 31966ft 376kts
08-Sep-19 11:57 33.852599 -118.654802 311 31974ft 377kts
08-Sep-19 11:58 33.926416 -118.744790 311 31983ft 377kts
08-Sep-19 11:59 34.000164 -118.834957 311 31982ft 377kts
08-Sep-19 12:00 34.074293 -118.925819 311 31981ft 378kts
08-Sep-19 12:01 34.148365 -119.016553 313 31975ft 380kts
08-Sep-19 12:02 34.224123 -119.106802 313 31967ft 380kts
08-Sep-19 12:03 34.300314 -119.197770 313 31968ft 380kts
08-Sep-19 12:04 34.376239 -119.288667 313 31970ft 380kts
08-Sep-19 12:05 34.451693 -119.379242 313 31962ft 380kts
08-Sep-19 12:06 34.527473 -119.470456 313 31944ft 380kts
08-Sep-19 12:08 34.603491 -119.562207 313 31941ft 381kts
08-Sep-19 12:09 34.678806 -119.653358 312 31941ft 380kts
08-Sep-19 12:10 34.753860 -119.744437 312 31952ft 380kts
08-Sep-19 12:11 34.829091 -119.835980 312 31978ft 381kts
08-Sep-19 12:12 34.904172 -119.927581 312 31990ft 379kts
08-Sep-19 12:13 34.978475 -120.018489 312 31990ft 371kts
08-Sep-19 12:14 35.051093 -120.107583 312 32004ft 364kts
08-Sep-19 12:15 35.122412 -120.195318 312 32030ft 364kts
08-Sep-19 12:16 35.197533 -120.279357 319 32068ft 367kts
08-Sep-19 12:17 35.279792 -120.354958 320 32040ft 367kts
08-Sep-19 12:18 35.362069 -120.430401 320 32042ft 367kts
08-Sep-19 12:19 35.444480 -120.506158 320 32041ft 367kts
08-Sep-19 12:20 35.526942 -120.582056 320 32039ft 368kts
08-Sep-19 12:21 35.610381 -120.655837 320 32042ft 368kts
08-Sep-19 12:22 35.693971 -120.729837 320 32048ft 368kts
08-Sep-19 12:23 35.777444 -120.803943 320 32046ft 368kts
08-Sep-19 12:24 35.861049 -120.878357 320 32045ft 368kts
08-Sep-19 12:25 35.944509 -120.952847 320 32044ft 367kts
08-Sep-19 12:26 36.028275 -121.027793 320 32044ft 368kts
08-Sep-19 12:26 36.098093 -121.090423 320 32054ft 368kts
08-Sep-19 12:28 36.194997 -121.177585 320 32084ft 368kts
08-Sep-19 12:29 36.278203 -121.252647 320 32090ft 368kts
08-Sep-19 12:29 36.347264 -121.315099 320 32089ft 368kts
08-Sep-19 12:30 36.430910 -121.390929 320 32088ft 368kts
08-Sep-19 12:32 36.527938 -121.479150 320 32089ft 368kts
08-Sep-19 12:33 36.611359 -121.555223 320 32089ft 368kts
08-Sep-19 12:33 36.686822 -121.605140 343 32128ft 381kts
08-Sep-19 12:34 36.793633 -121.626006 346 32080ft 384kts
08-Sep-19 12:35 36.900179 -121.644866 346 32075ft 384kts
08-Sep-19 12:36 37.006350 -121.663634 345 32082ft 382kts
08-Sep-19 12:37 37.110862 -121.682183 344 32085ft 377kts
08-Sep-19 12:38 37.214832 -121.700754 344 32083ft 376kts
08-Sep-19 12:39 37.318993 -121.719364 344 32077ft 376kts
08-Sep-19 12:40 37.423165 -121.738021 344 32076ft 376kts
08-Sep-19 12:41 37.527068 -121.756685 344 32067ft 376kts
08-Sep-19 12:42 37.631170 -121.775437 344 32057ft 376kts
08-Sep-19 12:43 37.735292 -121.794247 344 32056ft 376kts
08-Sep-19 12:44 37.839155 -121.813063 344 32053ft 376kts
08-Sep-19 12:45 37.943217 -121.831968 344 32048ft 376kts
08-Sep-19 12:46 38.047264 -121.850926 344 32045ft 376kts
08-Sep-19 12:47 38.155043 -121.870648 344 32094ft 403kts
08-Sep-19 12:48 38.261612 -121.890091 344 32032ft 366kts
08-Sep-19 12:49 38.365269 -121.909211 344 32044ft 377kts
08-Sep-19 12:50 38.469404 -121.928403 344 32047ft 376kts
08-Sep-19 12:51 38.573274 -121.947606 344 32046ft 376kts
08-Sep-19 12:52 38.677282 -121.966892 344 32045ft 376kts
08-Sep-19 12:53 38.781459 -121.986266 344 32044ft 376kts
08-Sep-19 12:54 38.885375 -122.005649 344 32043ft 376kts
08-Sep-19 12:55 38.989645 -122.025111 343 32038ft 374kts
08-Sep-19 12:56 39.093350 -122.044604 342 32032ft 374kts
08-Sep-19 12:57 39.196205 -122.063969 342 32037ft 374kts
08-Sep-19 12:58 39.299598 -122.083481 342 32037ft 373kts
08-Sep-19 12:59 39.403385 -122.103127 342 32037ft 373kts
08-Sep-19 13:00 39.506810 -122.122769 342 32035ft 374kts
08-Sep-19 13:01 39.610494 -122.142521 342 32035ft 374kts
08-Sep-19 13:02 39.713570 -122.162207 342 32032ft 373kts
08-Sep-19 13:03 39.816952 -122.182022 342 32031ft 374kts
08-Sep-19 13:04 39.920557 -122.201929 342 32022ft 374kts
08-Sep-19 13:05 40.023905 -122.221856 342 32012ft 374kts
08-Sep-19 13:06 40.129712 -122.228077 0 32027ft 396kts
08-Sep-19 13:07 40.238879 -122.202675 2 32005ft 396kts
08-Sep-19 13:08 40.348447 -122.176239 2 32004ft 397kts
08-Sep-19 13:09 40.458018 -122.149706 2 31986ft 397kts
08-Sep-19 13:10 40.567238 -122.123169 2 31980ft 397kts
08-Sep-19 13:11 40.676751 -122.096465 2 31978ft 397kts
08-Sep-19 13:12 40.786191 -122.069697 2 31978ft 397kts
08-Sep-19 13:13 40.895996 -122.042750 2 31978ft 397kts
08-Sep-19 13:14 41.005732 -122.015705 2 31980ft 398kts
08-Sep-19 13:15 41.110269 -121.989863 1 31980ft 400kts
08-Sep-19 13:16 41.219872 -121.962722 1 32032ft 400kts
08-Sep-19 13:17 41.330055 -121.935316 1 32075ft 400kts
08-Sep-19 13:18 41.440245 -121.907808 1 32076ft 400kts
08-Sep-19 13:19 41.550694 -121.880141 1 32074ft 400kts
08-Sep-19 13:20 41.661280 -121.852336 1 32078ft 400kts
08-Sep-19 13:21 41.771675 -121.824505 1 32083ft 402kts
08-Sep-19 13:22 41.881830 -121.796616 1 32083ft 401kts
08-Sep-19 13:23 41.992300 -121.768558 1 32083ft 400kts
08-Sep-19 13:24 42.102016 -121.740581 1 32083ft 400kts
08-Sep-19 13:25 42.209121 -121.740641 342 32095ft 381kts
08-Sep-19 13:26 42.314816 -121.764188 342 32085ft 380kts
08-Sep-19 13:27 42.419844 -121.788103 342 32084ft 379kts
08-Sep-19 13:28 42.524255 -121.811966 342 32085ft 380kts
08-Sep-19 13:29 42.629361 -121.836057 342 32085ft 380kts
08-Sep-19 13:30 42.734388 -121.860221 342 32080ft 379kts
08-Sep-19 13:31 42.839503 -121.884501 342 32082ft 380kts
08-Sep-19 13:32 42.945199 -121.909044 342 32084ft 389kts
08-Sep-19 13:33 43.054879 -121.934562 344 32082ft 403kts
08-Sep-19 13:34 43.163029 -121.959715 344 32081ft 402kts
08-Sep-19 13:35 43.273172 -121.985545 344 32058ft 402kts
08-Sep-19 13:36 43.385251 -122.011870 344 32030ft 402kts
08-Sep-19 13:37 43.496726 -122.038152 344 32022ft 402kts
08-Sep-19 13:38 43.607004 -122.064274 344 32018ft 402kts
08-Sep-19 13:39 43.717691 -122.090576 344 32016ft 402kts
08-Sep-19 13:40 43.828041 -122.116913 344 32017ft 402kts
08-Sep-19 13:41 43.936316 -122.142846 344 32017ft 402kts
08-Sep-19 13:42 44.044377 -122.168830 344 32017ft 402kts
08-Sep-19 13:43 44.147314 -122.193655 344 32017ft 402kts
08-Sep-19 13:44 44.257752 -122.220396 344 32020ft 401kts
08-Sep-19 13:45 44.368574 -122.247341 344 32015ft 401kts
08-Sep-19 13:46 44.478331 -122.274114 344 31991ft 401kts
08-Sep-19 13:47 44.586919 -122.300713 344 31991ft 401kts
08-Sep-19 13:48 44.695244 -122.327350 344 31992ft 400kts
08-Sep-19 13:49 44.802364 -122.353787 344 31997ft 401kts
08-Sep-19 13:50 44.911064 -122.380710 344 31995ft 401kts
08-Sep-19 13:51 45.023129 -122.408642 344 32000ft 410kts
08-Sep-19 13:52 45.137879 -122.437308 346 31995ft 422kts
08-Sep-19 13:53 45.254149 -122.466385 345 31987ft 420kts
08-Sep-19 13:54 45.371736 -122.495992 345 31983ft 420kts
08-Sep-19 13:55 45.488785 -122.525594 345 31981ft 420kts
08-Sep-19 13:56 45.604561 -122.554986 345 31979ft 420kts
08-Sep-19 13:57 45.720008 -122.584426 345 31979ft 420kts
08-Sep-19 13:58 45.836127 -122.613343 346 31801ft 424kts
08-Sep-19 13:59 45.952289 -122.642107 346 29761ft 415kts
08-Sep-19 14:00 46.064655 -122.670061 345 27761ft 402kts
08-Sep-19 14:01 46.174705 -122.693348 347 25516ft 398kts
08-Sep-19 14:02 46.284701 -122.715166 348 23072ft 394kts
08-Sep-19 14:03 46.394000 -122.724822 354 20755ft 388kts
08-Sep-19 14:04 46.501670 -122.728732 354 18404ft 381kts
08-Sep-19 14:05 46.606796 -122.732529 355 16063ft 373kts
08-Sep-19 14:06 46.710484 -122.736292 355 13642ft 367kts
08-Sep-19 14:07 46.807853 -122.707805 31 12009ft 347kts
08-Sep-19 14:08 46.878969 -122.628875 34 11991ft 306kts
08-Sep-19 14:09 46.950887 -122.558132 16 11742ft 308kts
08-Sep-19 14:10 47.032399 -122.520778 15 10651ft 300kts
08-Sep-19 14:11 47.112113 -122.494371 5 9918ft 292kts
08-Sep-19 14:12 47.193320 -122.479651 4 9930ft 297kts
08-Sep-19 14:13 47.271143 -122.467729 4 8567ft 265kts
08-Sep-19 14:14 47.345541 -122.456354 3 7679ft 265kts
08-Sep-19 14:15 47.415704 -122.455325 358 7000ft 235kts
08-Sep-19 14:16 47.482588 -122.454929 359 5965ft 226kts
08-Sep-19 14:17 47.546209 -122.453221 359 4478ft 222kts
08-Sep-19 14:18 47.607882 -122.455038 356 3998ft 221kts
08-Sep-19 14:19 47.666599 -122.459296 6 3737ft 201kts
08-Sep-19 14:20 47.682616 -122.397846 114 3030ft 184kts
08-Sep-19 14:21 47.646016 -122.353495 154 2998ft 174kts
08-Sep-19 14:22 47.601645 -122.323653 163 3006ft 173kts
08-Sep-19 14:23 47.554374 -122.311010 173 2484ft 182kts
08-Sep-19 14:24 47.502539 -122.310901 178 1296ft 189kts
08-Sep-19 14:26 47.452275 -122.311130 179 417ft 158kts
08-Sep-19 14:27 47.440462 -122.309984 150 371ft 0kts
08-Sep-19 14:28 47.439067 -122.308236 106 369ft 20kts
08-Sep-19 14:29 47.440826 -122.306370 359 379ft 8kts
08-Sep-19 14:30 47.444404 -122.305353 91 391ft 5kts
08-Sep-19 14:31 47.444151 -122.304293 129 389ft 0kts

Navigation Log

Ident Type
Flight plan parsing failed, navigation log unavailable